createdAt,value
2019-04-04T00:00:45.181Z,6.20
2019-04-04T00:03:16.161Z,6.20
2019-04-04T00:05:45.616Z,6.10
2019-04-04T00:08:27.145Z,6.10
2019-04-04T00:10:57.567Z,6.20
2019-04-04T00:13:27.050Z,6.10
2019-04-04T00:15:56.499Z,6.10
2019-04-04T00:18:27.459Z,6.10
2019-04-04T00:20:57.514Z,6.10
2019-04-04T00:23:26.999Z,6.00
2019-04-04T00:25:56.448Z,5.90
2019-04-04T00:28:25.922Z,5.90
2019-04-04T00:30:55.395Z,5.90
2019-04-04T00:33:25.819Z,6.00
2019-04-04T00:35:56.707Z,6.00
2019-04-04T00:38:26.190Z,5.90
2019-04-04T00:40:55.652Z,5.90
2019-04-04T00:43:25.135Z,5.80
2019-04-04T00:45:54.591Z,5.70
2019-04-04T00:48:24.069Z,5.60
2019-04-04T00:50:53.523Z,5.50
2019-04-04T00:53:23.002Z,5.40
2019-04-04T00:55:52.467Z,5.30
2019-04-04T00:58:22.082Z,5.30
2019-04-04T01:00:52.911Z,5.20
2019-04-04T01:03:22.719Z,5.20
2019-04-04T01:05:52.198Z,5.20
2019-04-04T01:08:21.659Z,5.10
2019-04-04T01:10:51.215Z,5.00
2019-04-04T01:13:21.207Z,4.90
2019-04-04T01:15:51.768Z,4.80
2019-04-04T01:18:21.234Z,4.70
2019-04-04T01:20:51.314Z,4.70
2019-04-04T01:23:20.846Z,4.60
2019-04-04T01:25:50.318Z,4.50
2019-04-04T01:28:19.770Z,4.60
2019-04-04T01:30:49.261Z,4.70
2019-04-04T01:33:19.965Z,4.60
2019-04-04T01:35:49.971Z,4.70
2019-04-04T01:38:19.445Z,4.70
2019-04-04T01:40:48.910Z,4.70
2019-04-04T01:43:18.363Z,4.70
2019-04-04T01:45:47.847Z,4.60
2019-04-04T01:48:18.784Z,4.60
2019-04-04T01:50:48.467Z,4.60
2019-04-04T01:53:17.988Z,4.60
2019-04-04T01:55:47.473Z,4.60
2019-04-04T01:58:16.939Z,4.60
2019-04-04T02:00:46.641Z,4.50
2019-04-04T02:03:16.199Z,4.40
2019-04-04T02:05:45.641Z,4.40
2019-04-04T02:08:16.234Z,4.30
2019-04-04T02:10:45.788Z,4.40
2019-04-04T02:13:15.243Z,4.50
2019-04-04T02:15:45.897Z,4.50
2019-04-04T02:18:15.345Z,4.50
2019-04-04T02:20:44.832Z,4.40
2019-04-04T02:23:14.296Z,4.50
2019-04-04T02:25:43.797Z,4.60
2019-04-04T02:28:13.236Z,4.70
2019-04-04T02:30:42.719Z,4.80
2019-04-04T02:33:12.180Z,4.80
2019-04-04T02:35:43.668Z,4.80
2019-04-04T02:38:12.806Z,4.90
2019-04-04T02:40:42.382Z,4.90
2019-04-04T02:43:11.847Z,5.00
2019-04-04T02:45:41.334Z,5.00
2019-04-04T02:48:10.786Z,4.90
2019-04-04T02:50:40.261Z,4.90
2019-04-04T02:53:10.786Z,4.80
2019-04-04T02:55:40.274Z,4.80
2019-04-04T02:58:13.887Z,4.80
2019-04-04T03:00:40.842Z,4.80
2019-04-04T03:03:10.441Z,4.70
2019-04-04T03:05:39.995Z,4.70
2019-04-04T03:08:09.449Z,4.70
2019-04-04T03:10:38.996Z,4.70
2019-04-04T03:13:08.456Z,4.80
2019-04-04T03:15:41.340Z,4.80
2019-04-04T03:18:09.161Z,4.70
2019-04-04T03:20:38.641Z,4.60
2019-04-04T03:23:08.110Z,4.50
2019-04-04T03:25:37.688Z,4.30
2019-04-04T03:28:07.147Z,4.00
2019-04-04T03:30:36.612Z,4.00
2019-04-04T03:33:06.069Z,3.90
2019-04-04T03:35:36.637Z,3.80
2019-04-04T03:38:06.090Z,3.90
2019-04-04T03:40:35.578Z,3.90
2019-04-04T03:43:05.037Z,3.90
2019-04-04T03:45:34.523Z,3.80
2019-04-04T03:48:05.074Z,3.80
2019-04-04T03:50:34.557Z,3.70
2019-04-04T03:53:04.012Z,3.70
2019-04-04T03:55:33.856Z,3.70
2019-04-04T03:58:03.313Z,3.80
2019-04-04T04:00:33.444Z,3.90
2019-04-04T04:03:02.888Z,3.80
2019-04-04T04:05:35.584Z,3.80
2019-04-04T04:08:03.988Z,3.70
2019-04-04T04:10:33.993Z,3.60
2019-04-04T04:13:03.525Z,3.60
2019-04-04T04:15:33.008Z,3.60
2019-04-04T04:18:02.485Z,3.60
2019-04-04T04:20:36.114Z,3.50
2019-04-04T04:23:03.111Z,3.50
2019-04-04T04:25:35.324Z,3.50
2019-04-04T04:28:03.702Z,3.50
2019-04-04T04:30:33.226Z,3.60
2019-04-04T04:33:03.760Z,3.70
2019-04-04T04:35:33.236Z,3.80
2019-04-04T04:38:02.718Z,3.80
2019-04-04T04:40:32.169Z,3.70
2019-04-04T04:43:01.652Z,3.60
2019-04-04T04:45:31.182Z,3.60
2019-04-04T04:48:00.668Z,3.60
2019-04-04T04:50:30.124Z,3.60
2019-04-04T04:52:59.609Z,3.60
2019-04-04T04:55:29.058Z,3.60
2019-04-04T04:57:58.547Z,3.50
2019-04-04T05:00:28.218Z,3.60
2019-04-04T05:02:57.809Z,3.60
2019-04-04T05:05:27.267Z,3.70
2019-04-04T05:07:56.751Z,3.80
2019-04-04T05:10:27.279Z,3.80
2019-04-04T05:12:56.756Z,3.90
2019-04-04T05:15:26.211Z,4.00
2019-04-04T05:17:55.695Z,4.00
2019-04-04T05:20:28.000Z,4.00
2019-04-04T05:22:56.255Z,4.00
2019-04-04T05:25:25.785Z,4.10
2019-04-04T05:27:55.263Z,4.10
2019-04-04T05:30:24.720Z,4.00
2019-04-04T05:32:56.374Z,4.00
2019-04-04T05:35:25.350Z,4.00
2019-04-04T05:37:54.831Z,4.00
2019-04-04T05:40:24.328Z,4.00
2019-04-04T05:42:54.748Z,4.20
2019-04-04T05:45:24.190Z,4.20
2019-04-04T05:47:56.295Z,4.20
2019-04-04T05:50:24.743Z,4.20
2019-04-04T05:52:54.224Z,4.20
2019-04-04T05:55:23.697Z,4.20
2019-04-04T05:57:53.166Z,4.30
2019-04-04T06:00:22.687Z,4.40
2019-04-04T06:02:52.170Z,4.40
2019-04-04T06:05:21.628Z,4.40
2019-04-04T06:07:51.103Z,4.40
2019-04-04T06:10:20.559Z,4.40
2019-04-04T06:12:50.043Z,4.40
2019-04-04T06:15:19.496Z,4.40
2019-04-04T06:17:48.987Z,4.40
2019-04-04T06:20:18.585Z,4.40
2019-04-04T06:22:48.062Z,4.50
2019-04-04T06:25:17.683Z,4.60
2019-04-04T06:27:47.163Z,4.60
2019-04-04T06:30:18.149Z,4.80
2019-04-04T06:32:47.799Z,4.90
2019-04-04T06:35:17.254Z,5.00
2019-04-04T06:37:46.804Z,5.00
2019-04-04T06:40:16.400Z,5.00
2019-04-04T06:42:45.897Z,5.10
2019-04-04T06:45:16.176Z,5.10
2019-04-04T06:47:45.839Z,5.10
2019-04-04T06:50:15.524Z,5.10
2019-04-04T06:52:45.008Z,5.20
2019-04-04T06:55:14.530Z,5.40
2019-04-04T06:57:44.008Z,5.60
2019-04-04T07:00:15.927Z,5.70
2019-04-04T07:02:47.203Z,5.80
2019-04-04T07:05:15.928Z,5.80
2019-04-04T07:07:45.412Z,6.00
2019-04-04T07:10:15.006Z,6.10
2019-04-04T07:12:44.486Z,5.90
2019-04-04T07:15:16.011Z,5.90
2019-04-04T07:17:45.111Z,6.00
2019-04-04T07:20:17.140Z,6.00
2019-04-04T07:22:46.511Z,6.00
2019-04-04T07:25:15.968Z,5.90
2019-04-04T07:27:47.433Z,5.90
2019-04-04T07:30:17.003Z,5.90
2019-04-04T07:32:46.496Z,6.00
2019-04-04T07:35:17.144Z,6.10
2019-04-04T07:37:47.243Z,6.20
2019-04-04T07:40:20.158Z,6.30
2019-04-04T07:42:48.870Z,6.10
2019-04-04T07:45:18.334Z,6.30
2019-04-04T07:47:47.834Z,6.40
2019-04-04T07:50:17.267Z,6.40
2019-04-04T07:52:46.747Z,6.50
2019-04-04T07:55:16.201Z,6.60
2019-04-04T07:57:45.671Z,6.60
2019-04-04T08:00:15.368Z,6.60
2019-04-04T08:02:44.849Z,6.70
2019-04-04T08:05:14.439Z,6.80
2019-04-04T08:07:43.924Z,6.80
2019-04-04T08:10:20.355Z,6.90
2019-04-04T08:12:45.039Z,6.90
2019-04-04T08:15:14.568Z,6.90
2019-04-04T08:17:44.031Z,6.80
2019-04-04T08:20:13.842Z,6.70
2019-04-04T08:22:43.303Z,6.60
2019-04-04T08:25:12.951Z,6.70
2019-04-04T08:27:42.408Z,6.90
2019-04-04T08:30:12.031Z,7.00
2019-04-04T08:32:41.483Z,7.00
2019-04-04T08:35:12.100Z,6.90
2019-04-04T08:37:41.560Z,6.90
2019-04-04T08:40:11.413Z,6.90
2019-04-04T08:42:40.867Z,6.90
2019-04-04T08:45:10.347Z,6.90
2019-04-04T08:47:39.876Z,6.90
2019-04-04T08:50:09.497Z,6.90
2019-04-04T08:52:38.948Z,7.00
2019-04-04T08:55:08.595Z,7.10
2019-04-04T08:57:38.063Z,7.10
2019-04-04T09:00:08.487Z,7.10
2019-04-04T09:02:37.942Z,7.00
2019-04-04T09:05:12.327Z,7.00
2019-04-04T09:07:38.649Z,7.00
2019-04-04T09:10:08.763Z,6.90
2019-04-04T09:12:38.225Z,7.00
2019-04-04T09:15:09.398Z,6.90
2019-04-04T09:17:38.894Z,7.00
2019-04-04T09:20:09.692Z,6.90
2019-04-04T09:22:40.781Z,6.90
2019-04-04T09:25:11.114Z,6.90
2019-04-04T09:27:40.754Z,6.90
2019-04-04T09:30:12.643Z,6.90
2019-04-04T09:32:42.172Z,6.80
2019-04-04T09:35:13.159Z,6.80
2019-04-04T09:37:42.615Z,6.90
2019-04-04T09:40:13.334Z,6.90
2019-04-04T09:42:42.790Z,6.90
2019-04-04T09:45:12.616Z,7.00
2019-04-04T09:47:42.075Z,7.10
2019-04-04T09:50:12.103Z,7.20
2019-04-04T09:52:41.627Z,7.30
2019-04-04T09:55:11.551Z,7.20
2019-04-04T09:57:41.009Z,7.10
2019-04-04T10:00:14.382Z,7.10
2019-04-04T10:02:43.997Z,7.10
2019-04-04T10:05:15.009Z,6.90
2019-04-04T10:07:45.635Z,6.80
2019-04-04T10:10:16.721Z,6.80
2019-04-04T10:12:46.162Z,6.90
2019-04-04T10:15:16.177Z,7.00
2019-04-04T10:17:45.719Z,7.00
2019-04-04T10:20:15.181Z,7.30
2019-04-04T10:22:45.707Z,7.20
2019-04-04T10:25:15.173Z,7.30
2019-04-04T10:27:44.621Z,7.70
2019-04-04T10:30:14.353Z,7.70
2019-04-04T10:32:43.802Z,7.40
2019-04-04T10:35:13.344Z,7.30
2019-04-04T10:37:42.791Z,7.20
2019-04-04T10:40:12.507Z,7.30
2019-04-04T10:42:41.956Z,7.40
2019-04-04T10:45:12.761Z,7.60
2019-04-04T10:47:42.205Z,7.70
2019-04-04T10:50:12.085Z,7.80
2019-04-04T10:52:41.539Z,8.00
2019-04-04T10:55:11.243Z,8.10
2019-04-04T10:57:40.694Z,8.40
2019-04-04T11:00:11.001Z,8.60
2019-04-04T11:02:40.450Z,8.60
2019-04-04T11:05:10.158Z,8.50
2019-04-04T11:07:39.601Z,8.30
2019-04-04T11:10:09.305Z,8.40
2019-04-04T11:12:38.754Z,8.60
2019-04-04T11:15:08.361Z,8.70
2019-04-04T11:17:37.807Z,8.50
2019-04-04T11:20:07.522Z,8.20
2019-04-04T11:22:36.969Z,7.90
2019-04-04T11:25:06.679Z,7.80
2019-04-04T11:27:36.133Z,7.80
2019-04-04T11:30:09.512Z,7.90
2019-04-04T11:32:38.921Z,7.80
2019-04-04T11:35:08.535Z,7.70
2019-04-04T11:37:37.986Z,7.60
2019-04-04T11:40:07.595Z,7.60
2019-04-04T11:42:37.045Z,7.40
2019-04-04T11:45:06.682Z,7.30
2019-04-04T11:47:37.746Z,7.30
2019-04-04T11:50:07.857Z,7.30
2019-04-04T11:52:37.308Z,7.20
2019-04-04T11:55:07.393Z,7.20
2019-04-04T11:57:38.397Z,7.20
2019-04-04T12:00:10.625Z,7.30
2019-04-04T12:02:40.098Z,7.30
2019-04-04T12:05:09.684Z,7.30
2019-04-04T12:07:39.150Z,7.30
2019-04-04T12:10:08.836Z,7.30
2019-04-04T12:12:38.311Z,7.30
2019-04-04T12:15:08.603Z,7.30
2019-04-04T12:17:38.064Z,7.20
2019-04-04T12:20:08.137Z,7.30
2019-04-04T12:22:37.526Z,7.30
2019-04-04T12:25:07.318Z,7.30
2019-04-04T12:27:37.866Z,7.30
2019-04-04T12:30:08.845Z,7.30
2019-04-04T12:32:38.318Z,7.30
2019-04-04T12:35:07.833Z,7.30
2019-04-04T12:37:37.303Z,7.30
2019-04-04T12:40:19.944Z,7.30
2019-04-04T12:42:41.086Z,7.20
2019-04-04T12:45:10.769Z,7.20
2019-04-04T12:47:40.304Z,7.10
2019-04-04T12:50:10.198Z,7.10
2019-04-04T12:52:39.665Z,7.10
2019-04-04T12:55:09.561Z,7.10
2019-04-04T12:57:39.034Z,7.20
2019-04-04T13:00:09.583Z,7.20
2019-04-04T13:02:39.050Z,7.20
2019-04-04T13:05:09.337Z,7.20
2019-04-04T13:07:38.813Z,7.20
2019-04-04T13:10:11.918Z,7.20
2019-04-04T13:12:40.187Z,7.20
2019-04-04T13:15:10.874Z,7.20
2019-04-04T13:17:40.393Z,7.30
2019-04-04T13:20:10.537Z,7.30
2019-04-04T13:22:40.001Z,7.30
2019-04-04T13:25:09.998Z,7.40
2019-04-04T13:27:39.467Z,7.30
2019-04-04T13:30:12.726Z,7.30
2019-04-04T13:32:42.188Z,7.30
2019-04-04T13:35:11.776Z,7.30
2019-04-04T13:37:41.293Z,7.30
2019-04-04T13:40:10.820Z,7.30
2019-04-04T13:42:40.284Z,7.40
2019-04-04T13:45:09.963Z,7.30
2019-04-04T13:47:40.356Z,7.30
2019-04-04T13:50:12.452Z,7.30
2019-04-04T13:52:41.403Z,7.30
2019-04-04T13:55:10.985Z,7.30
2019-04-04T13:57:40.459Z,7.30
2019-04-04T14:00:10.541Z,7.30
2019-04-04T14:02:40.085Z,7.30
2019-04-04T14:05:12.686Z,7.30
2019-04-04T14:07:43.508Z,7.30
2019-04-04T14:10:12.213Z,7.20
2019-04-04T14:12:41.692Z,7.10
2019-04-04T14:15:11.778Z,7.20
2019-04-04T14:17:43.708Z,7.10
2019-04-04T14:20:12.840Z,7.10
2019-04-04T14:22:42.299Z,7.10
2019-04-04T14:25:11.813Z,7.10
2019-04-04T14:27:41.285Z,7.10
2019-04-04T14:30:11.377Z,7.20
2019-04-04T14:32:40.843Z,7.30
2019-04-04T14:35:11.892Z,7.30
2019-04-04T14:37:41.369Z,7.30
2019-04-04T14:40:12.029Z,7.20
2019-04-04T14:42:41.497Z,7.10
2019-04-04T14:45:11.015Z,7.10
2019-04-04T14:47:40.562Z,7.10
2019-04-04T14:50:10.239Z,7.00
2019-04-04T14:52:39.917Z,7.00
2019-04-04T14:55:10.634Z,7.10
2019-04-04T14:57:40.105Z,7.10
2019-04-04T15:00:11.729Z,7.10
2019-04-04T15:02:41.209Z,7.10
2019-04-04T15:05:10.792Z,7.00
2019-04-04T15:07:40.272Z,7.00
2019-04-04T15:10:09.856Z,7.00
2019-04-04T15:12:39.325Z,7.10
2019-04-04T15:15:09.249Z,7.00
2019-04-04T15:17:38.721Z,7.10
2019-04-04T15:20:08.601Z,7.10
2019-04-04T15:22:38.073Z,7.00
2019-04-04T15:25:07.665Z,7.00
2019-04-04T15:27:40.014Z,7.00
2019-04-04T15:30:09.818Z,7.00
2019-04-04T15:32:39.266Z,7.00
2019-04-04T15:35:09.178Z,7.00
2019-04-04T15:37:38.648Z,7.00
2019-04-04T15:40:08.759Z,6.90
2019-04-04T15:42:39.269Z,6.90
2019-04-04T15:45:08.982Z,6.90
2019-04-04T15:47:38.464Z,6.90
2019-04-04T15:50:09.034Z,6.90
2019-04-04T15:52:38.482Z,6.90
2019-04-04T15:55:08.092Z,6.90
2019-04-04T15:57:37.537Z,6.80
2019-04-04T16:00:08.272Z,6.70
2019-04-04T16:02:37.793Z,6.70
2019-04-04T16:05:07.553Z,6.70
2019-04-04T16:07:37.013Z,6.80
2019-04-04T16:10:07.327Z,6.70
2019-04-04T16:12:36.787Z,6.70
2019-04-04T16:15:07.505Z,6.60
2019-04-04T16:17:37.030Z,6.60
2019-04-04T16:20:09.148Z,6.60
2019-04-04T16:22:38.635Z,6.70
2019-04-04T16:25:08.408Z,6.70
2019-04-04T16:27:38.411Z,6.60
2019-04-04T16:30:09.342Z,6.50
2019-04-04T16:32:38.849Z,6.60
2019-04-04T16:35:08.554Z,6.50
2019-04-04T16:37:38.075Z,6.50
2019-04-04T16:40:09.790Z,6.50
2019-04-04T16:42:39.360Z,6.50
2019-04-04T16:45:09.281Z,6.50
2019-04-04T16:47:39.023Z,6.60
2019-04-04T16:50:08.867Z,6.60
2019-04-04T16:52:38.330Z,6.60
2019-04-04T16:55:08.220Z,6.50
2019-04-04T16:57:37.679Z,6.60
2019-04-04T17:00:10.239Z,6.50
2019-04-04T17:02:39.764Z,6.40
2019-04-04T17:05:10.981Z,6.40
2019-04-04T17:07:40.490Z,6.30
2019-04-04T17:10:10.511Z,6.30
2019-04-04T17:12:39.962Z,6.30
2019-04-04T17:15:10.084Z,6.20
2019-04-04T17:17:39.622Z,6.20
2019-04-04T17:20:09.643Z,6.20
2019-04-04T17:22:39.167Z,6.20
2019-04-04T17:25:09.287Z,6.10
2019-04-04T17:27:41.276Z,6.10
2019-04-04T17:30:12.845Z,6.10
2019-04-04T17:32:42.297Z,6.10
2019-04-04T17:35:11.975Z,6.10
2019-04-04T17:37:42.939Z,6.10
2019-04-04T17:40:13.555Z,6.00
2019-04-04T17:42:43.046Z,6.00
2019-04-04T17:45:13.039Z,5.90
2019-04-04T17:47:42.491Z,5.90
2019-04-04T17:50:13.615Z,5.90
2019-04-04T17:52:43.538Z,5.90
2019-04-04T17:55:13.591Z,5.90
2019-04-04T17:57:43.289Z,5.90
2019-04-04T18:00:14.798Z,5.90
2019-04-04T18:02:44.325Z,5.90
2019-04-04T18:05:13.947Z,5.90
2019-04-04T18:07:43.392Z,5.90
2019-04-04T18:10:13.217Z,5.80
2019-04-04T18:12:43.106Z,5.80
2019-04-04T18:15:13.721Z,5.80
2019-04-04T18:17:43.183Z,5.80
2019-04-04T18:20:13.137Z,5.80
2019-04-04T18:22:42.663Z,5.80
2019-04-04T18:25:13.511Z,5.80
2019-04-04T18:27:43.343Z,5.80
2019-04-04T18:30:14.311Z,5.80
2019-04-04T18:32:43.736Z,5.80
2019-04-04T18:35:13.774Z,5.80
2019-04-04T18:37:43.802Z,5.80
2019-04-04T18:40:13.448Z,5.80
2019-04-04T18:42:52.716Z,5.80
2019-04-04T18:45:14.851Z,5.80
2019-04-04T18:47:44.307Z,5.80
2019-04-04T18:50:14.099Z,5.80
2019-04-04T18:52:43.555Z,5.80
2019-04-04T18:55:19.991Z,5.80
2019-04-04T18:57:45.667Z,5.80
2019-04-04T19:00:15.887Z,5.80
2019-04-04T19:02:45.347Z,5.80
2019-04-04T19:05:14.984Z,5.80
2019-04-04T19:07:44.611Z,5.80
2019-04-04T19:10:14.533Z,5.80
2019-04-04T19:12:43.998Z,5.80
2019-04-04T19:15:14.423Z,5.80
2019-04-04T19:17:43.878Z,5.80
2019-04-04T19:20:13.908Z,5.90
2019-04-04T19:22:43.436Z,5.90
2019-04-04T19:25:13.838Z,5.90
2019-04-04T19:27:43.461Z,5.90
2019-04-04T19:30:15.566Z,5.90
2019-04-04T19:32:45.020Z,5.90
2019-04-04T19:35:16.315Z,5.90
2019-04-04T19:37:45.851Z,5.80
2019-04-04T19:40:16.070Z,5.80
2019-04-04T19:42:45.550Z,5.90
2019-04-04T19:45:15.555Z,5.90
2019-04-04T19:47:45.042Z,5.80
2019-04-04T19:50:14.743Z,5.80
2019-04-04T19:52:44.224Z,5.80
2019-04-04T19:55:13.689Z,5.80
2019-04-04T19:57:43.171Z,5.90
2019-04-04T20:00:13.440Z,5.90
2019-04-04T20:02:44.081Z,5.90
2019-04-04T20:05:13.859Z,5.90
2019-04-04T20:07:43.348Z,5.90
2019-04-04T20:10:13.251Z,5.90
2019-04-04T20:12:42.730Z,5.90
2019-04-04T20:15:12.331Z,5.90
2019-04-04T20:17:41.816Z,5.90
2019-04-04T20:20:11.418Z,5.90
2019-04-04T20:22:40.907Z,5.80
2019-04-04T20:25:10.507Z,5.80
2019-04-04T20:27:39.998Z,5.80
2019-04-04T20:30:10.199Z,5.90
2019-04-04T20:32:39.687Z,5.80
2019-04-04T20:35:09.390Z,5.90
2019-04-04T20:37:38.869Z,5.90
2019-04-04T20:40:08.894Z,5.90
2019-04-04T20:42:38.358Z,5.90
2019-04-04T20:45:07.959Z,5.90
2019-04-04T20:47:37.443Z,5.90
2019-04-04T20:50:07.948Z,5.80
2019-04-04T20:52:37.507Z,5.80
2019-04-04T20:55:07.035Z,5.80
2019-04-04T20:57:36.523Z,5.80
2019-04-04T21:00:07.133Z,5.80
2019-04-04T21:02:37.682Z,5.80
2019-04-04T21:05:07.788Z,5.80
2019-04-04T21:07:37.271Z,5.90
2019-04-04T21:10:06.873Z,5.90
2019-04-04T21:12:36.413Z,5.90
2019-04-04T21:15:06.958Z,5.90
2019-04-04T21:17:36.532Z,5.90
2019-04-04T21:20:07.052Z,5.90
2019-04-04T21:22:37.511Z,5.90
2019-04-04T21:25:07.103Z,5.90
2019-04-04T21:27:36.591Z,6.00
2019-04-04T21:30:07.199Z,6.00
2019-04-04T21:32:36.692Z,6.00
2019-04-04T21:35:07.024Z,6.00
2019-04-04T21:37:36.500Z,6.00
2019-04-04T21:40:06.116Z,5.90
2019-04-04T21:42:36.652Z,5.90
2019-04-04T21:45:07.630Z,5.90
2019-04-04T21:47:37.116Z,5.90
2019-04-04T21:50:07.723Z,5.90
2019-04-04T21:52:37.488Z,6.00
2019-04-04T21:55:07.211Z,6.00
2019-04-04T21:57:36.695Z,6.00
2019-04-04T22:00:07.780Z,5.90
2019-04-04T22:02:38.950Z,5.90
2019-04-04T22:05:08.726Z,5.90
2019-04-04T22:07:38.204Z,6.00
2019-04-04T22:10:08.406Z,6.00
2019-04-04T22:12:38.964Z,6.00
2019-04-04T22:15:09.057Z,5.90
2019-04-04T22:17:39.784Z,5.90
2019-04-04T22:20:09.783Z,5.90
2019-04-04T22:22:39.273Z,5.90
2019-04-04T22:25:08.799Z,5.90
2019-04-04T22:27:38.284Z,5.90
2019-04-04T22:30:09.460Z,5.90
2019-04-04T22:32:38.936Z,5.90
2019-04-04T22:35:08.639Z,5.90
2019-04-04T22:37:38.127Z,5.90
2019-04-04T22:40:08.630Z,5.90
2019-04-04T22:42:38.121Z,5.90
2019-04-04T22:45:08.254Z,5.90
2019-04-04T22:47:37.735Z,5.90
2019-04-04T22:50:07.335Z,5.90
2019-04-04T22:52:36.821Z,5.90
2019-04-04T22:55:06.423Z,5.90
2019-04-04T22:57:35.909Z,5.90
2019-04-04T23:00:08.053Z,5.90
2019-04-04T23:02:39.160Z,5.90
2019-04-04T23:05:09.171Z,5.90
2019-04-04T23:07:38.649Z,5.90
2019-04-04T23:10:08.851Z,5.90
2019-04-04T23:12:38.338Z,5.90
2019-04-04T23:15:10.313Z,5.90
2019-04-04T23:17:39.812Z,5.90
2019-04-04T23:20:10.020Z,6.00
2019-04-04T23:22:46.960Z,5.90
2019-04-04T23:25:10.784Z,6.00
2019-04-04T23:27:40.247Z,5.90
2019-04-04T23:30:10.181Z,5.90
2019-04-04T23:32:39.640Z,5.90
2019-04-04T23:35:09.575Z,5.90
2019-04-04T23:37:39.107Z,5.90
2019-04-04T23:40:08.864Z,5.90
2019-04-04T23:42:38.325Z,5.90
2019-04-04T23:45:08.248Z,5.90
2019-04-04T23:47:43.300Z,5.90
2019-04-04T23:50:08.947Z,5.90
2019-04-04T23:52:38.415Z,5.90
2019-04-04T23:55:08.071Z,5.90
2019-04-04T23:57:37.533Z,5.90
